PWSweather.com
Personal Weather Stations
Station Observations
WISCHPK61
Green Bay Schmitt Park, Green Bay, WI 54311

Green Bay Schmitt ParkGreen Bay, WI 54311

Lat: 44.514277, Lon: -87.935067

Elevation: 735

Station Type: Acu Rite Pro Weather Center model 02032C

http://greenbayweathercam.com

High Low Average
Temperature 11.0°F-11.7°C -10.7°F-23.7°C 0.3°F-17.6°C
Dew Point 10.8°F-11.8°C -12.9°F-24.9°C -2.2°F-19.0°C
Winds 1.2 mph 1.9 kmh Calm Calm Calm WCalm W
Wind Gusts 5.8 mph9.3 kmh -- --
Humidity 99% 49% 90%
Pressure 29.44 in997.0 mb 29.23 in989.8 mb -
Precipitation 0.00 in0.0 mm - -
Hour Temp Dew Point Humidity Winds Wind Gusts Pressure Precip Precip Rate Daily Precip Total
12:00 AM -2.0°F-18.9°C -2.2°F-19.0°C 99% Calm Calm -- 29.44 in997.0 mb - 0.00 in0.0 mm 0.00 in0.0 mm
01:00 AM -3.0°F-19.4°C -3.2°F-19.6°C 99% Calm Calm -- 29.44 in997.0 mb - 0.00 in0.0 mm 0.00 in0.0 mm
02:00 AM -4.4°F-20.2°C -8.8°F-22.7°C 81% Calm Calm -- 29.43 in996.6 mb - 0.00 in0.0 mm 0.00 in0.0 mm
03:00 AM -6.0°F-21.1°C -6.2°F-21.2°C 99% Calm Calm -- 29.43 in996.6 mb - 0.00 in0.0 mm 0.00 in0.0 mm
04:00 AM -7.2°F-21.8°C -7.4°F-21.9°C 99% Calm Calm -- 29.40 in995.6 mb - 0.00 in0.0 mm 0.00 in0.0 mm
05:00 AM -8.1°F-22.3°C -12.9°F-24.9°C 79% Calm Calm -- 29.39 in995.3 mb - 0.00 in0.0 mm 0.00 in0.0 mm
06:00 AM -9.0°F-22.8°C -9.2°F-22.9°C 99% Calm Calm -- 29.39 in995.3 mb - 0.00 in0.0 mm 0.00 in0.0 mm
07:00 AM -10.1°F-23.4°C -10.3°F-23.5°C 99% Calm Calm -- 29.39 in995.3 mb - 0.00 in0.0 mm 0.00 in0.0 mm
08:00 AM -10.7°F-23.7°C -10.9°F-23.8°C 99% Calm Calm -- 29.38 in994.9 mb - 0.00 in0.0 mm 0.00 in0.0 mm
09:00 AM -7.8°F-22.1°C -12.3°F-24.6°C 80% Calm Calm -- 29.38 in994.9 mb - 0.00 in0.0 mm 0.00 in0.0 mm
10:00 AM -2.6°F-19.2°C -2.8°F-19.3°C 99% Calm Calm -- 29.39 in995.3 mb - 0.00 in0.0 mm 0.00 in0.0 mm
11:00 AM 3.0°F-16.1°C 2.8°F-16.2°C 99% Calm Calm -- 29.37 in994.6 mb - 0.00 in0.0 mm 0.00 in0.0 mm
12:00 PM 3.9°F-15.6°C 3.7°F-15.7°C 99% Calm Calm -- 29.36 in994.2 mb - 0.00 in0.0 mm 0.00 in0.0 mm
01:00 PM 6.7°F-14.1°C -8.5°F-22.5°C 49% Calm Calm -- 29.35 in993.9 mb - 0.00 in0.0 mm 0.00 in0.0 mm
02:00 PM 10.0°F-12.2°C 9.8°F-12.3°C 99% Calm Calm -- 29.32 in992.9 mb - 0.00 in0.0 mm 0.00 in0.0 mm
03:00 PM 11.0°F-11.7°C 10.8°F-11.8°C 99% Calm Calm -- 29.31 in992.6 mb - 0.00 in0.0 mm 0.00 in0.0 mm
04:00 PM 8.6°F-13.0°C 8.4°F-13.1°C 99% Calm Calm -- 29.29 in991.9 mb - 0.00 in0.0 mm 0.00 in0.0 mm
05:00 PM 6.8°F-14.0°C 6.6°F-14.1°C 99% Calm Calm -- 29.28 in991.5 mb - 0.00 in0.0 mm 0.00 in0.0 mm
06:00 PM 6.1°F-14.4°C 5.9°F-14.5°C 99% Calm Calm -- 29.27 in991.2 mb - 0.00 in0.0 mm 0.00 in0.0 mm
07:00 PM 4.6°F-15.2°C 4.4°F-15.3°C 99% Calm Calm -- 29.26 in990.9 mb - 0.00 in0.0 mm 0.00 in0.0 mm
08:00 PM 3.9°F-15.6°C -6.9°F-21.6°C 60% Calm Calm -- 29.26 in990.9 mb - 0.00 in0.0 mm 0.00 in0.0 mm
09:00 PM 2.8°F-16.2°C -7.6°F-22.0°C 61% Calm Calm -- 29.25 in990.5 mb - 0.00 in0.0 mm 0.00 in0.0 mm
10:00 PM 2.8°F-16.2°C -3.3°F-19.6°C 75% Calm Calm -- 29.25 in990.5 mb - 0.00 in0.0 mm 0.00 in0.0 mm
11:00 PM 3.2°F-16.0°C 3.0°F-16.1°C 99% 1.2 mph NW1.9 kmh NW 5.8 mph9.3 kmh 29.25 in990.5 mb - 0.00 in0.0 mm 0.00 in0.0 mm